»·PEaware :: UAL1106 KSAN-KSFO

UAL1106 :: KSAN-KSFO

FLIGHT INFORMATION

Flight Status: Arrived
Operator:
United Airlines
More flights by this operator :: More flights under this callsign
Pilot: Vlad D. (11271)
Aircraft: BOEING 737-300
(B733)
More flights by this aircraft type
Origin: KSAN San Diego Intl-Lindbergh
United States
Destination: KSFO San Francisco Intl
United States
More flights between these airports :: More routes between these airports
Route: PEBLE6 SXC VTU RZS SERFR SERFR2
File this flight plan on PilotEdge
Remarks: Flown with Virtual United
Altitude:
(Current/Filed)
34,000ft
Speed:
(Current/Filed)
436kts
Departed: 11-Jun-16 06:50 PM
Arrived: 11-Jun-16 07:56 PM
Distance/Time
Traveled:
388nm/1:06
Distance/Time
To Go:
Arrived

Flight Plot

Page will automatically refresh every two minutes.


Map Options




Map Legend


Flown Route
Filed Route
Departure Airport
Arrival Airport
Navaid (VOR, NDB)
Fix

Horizontal Profiles

Position Reports

Time Latitude Longitude Heading Altitude Ground
Speed
11-Jun-16 18:09 32.732960 -117.203407 270 17ft 0kts
11-Jun-16 18:10 32.732960 -117.203407 270 17ft 0kts
11-Jun-16 18:11 32.732960 -117.203407 270 17ft 0kts
11-Jun-16 18:12 32.732960 -117.203407 270 17ft 0kts
11-Jun-16 18:13 32.732960 -117.203407 270 17ft 0kts
11-Jun-16 18:14 32.732960 -117.203407 270 17ft 0kts
11-Jun-16 18:15 32.732960 -117.203407 270 17ft 0kts
11-Jun-16 18:16 32.732960 -117.203407 270 17ft 0kts
11-Jun-16 18:17 32.732960 -117.203407 270 17ft 0kts
11-Jun-16 18:18 32.732960 -117.203407 270 17ft 0kts
11-Jun-16 18:19 32.732960 -117.203407 270 17ft 0kts
11-Jun-16 18:20 32.732960 -117.203407 270 17ft 0kts
11-Jun-16 18:21 32.732960 -117.203407 270 17ft 0kts
11-Jun-16 18:22 32.732960 -117.203407 270 17ft 0kts
11-Jun-16 18:23 32.732960 -117.203407 270 17ft 0kts
11-Jun-16 18:24 32.732960 -117.203407 270 17ft 0kts
11-Jun-16 18:25 32.732960 -117.203407 270 17ft 0kts
11-Jun-16 18:26 32.732960 -117.203407 270 17ft 0kts
11-Jun-16 18:27 32.732960 -117.203407 270 17ft 0kts
11-Jun-16 18:28 32.732960 -117.203418 270 17ft 0kts
11-Jun-16 18:29 32.732961 -117.203011 270 17ft 0kts
11-Jun-16 18:30 32.732891 -117.202898 23 17ft 0kts
11-Jun-16 18:31 32.732891 -117.202898 23 17ft 0kts
11-Jun-16 18:32 32.732891 -117.202898 23 17ft 0kts
11-Jun-16 18:33 32.732891 -117.202898 23 17ft 0kts
11-Jun-16 18:34 32.732993 -117.202844 24 17ft 1kts
11-Jun-16 18:35 32.733379 -117.202718 1 17ft 0kts
11-Jun-16 18:36 32.734170 -117.202672 13 17ft 6kts
11-Jun-16 18:37 32.735237 -117.200897 106 17ft 8kts
11-Jun-16 18:38 32.734618 -117.198372 104 17ft 6kts
11-Jun-16 18:39 32.734180 -117.196571 109 17ft 4kts
11-Jun-16 18:40 32.733450 -117.193525 105 20ft 16kts
11-Jun-16 18:41 32.732096 -117.187939 107 18ft 17kts
11-Jun-16 18:42 32.730883 -117.182929 106 17ft 14kts
11-Jun-16 18:43 32.730042 -117.179442 106 20ft 8kts
11-Jun-16 18:44 32.729509 -117.177276 106 21ft 4kts
11-Jun-16 18:45 32.729519 -117.176681 73 22ft 1kts
11-Jun-16 18:46 32.730340 -117.176321 283 23ft 11kts
11-Jun-16 18:47 32.737124 -117.205790 286 546ft 171kts
11-Jun-16 18:48 32.766404 -117.259473 302 2312ft 235kts
11-Jun-16 18:49 32.806739 -117.329282 301 4949ft 271kts
11-Jun-16 18:50 32.849330 -117.404209 301 8173ft 278kts
11-Jun-16 18:51 32.910127 -117.464587 325 10339ft 324kts
11-Jun-16 18:52 32.990643 -117.525794 312 12656ft 352kts
11-Jun-16 18:53 33.048550 -117.620543 301 15342ft 361kts
11-Jun-16 18:54 33.106989 -117.720357 301 17795ft 375kts
11-Jun-16 18:55 33.171043 -117.821240 303 19863ft 393kts
11-Jun-16 18:56 33.234336 -117.925085 310 21574ft 416kts
11-Jun-16 18:57 33.310903 -118.031593 305 23246ft 430kts
11-Jun-16 18:58 33.388709 -118.141954 305 24964ft 441kts
11-Jun-16 18:59 33.468621 -118.255643 304 26532ft 451kts
11-Jun-16 19:00 33.550269 -118.372170 304 27980ft 462kts
11-Jun-16 19:01 33.632535 -118.489915 304 29820ft 458kts
11-Jun-16 19:02 33.714028 -118.607001 303 31383ft 456kts
11-Jun-16 19:03 33.795208 -118.723269 303 32659ft 458kts
11-Jun-16 19:04 33.876416 -118.840553 303 33899ft 456kts
11-Jun-16 19:05 33.943291 -118.937499 305 34046ft 447kts
11-Jun-16 19:06 34.034571 -119.070313 307 34020ft 438kts
11-Jun-16 19:07 34.099256 -119.164723 307 34025ft 439kts
11-Jun-16 19:08 34.176220 -119.277379 307 34018ft 439kts
11-Jun-16 19:09 34.253651 -119.391076 307 34018ft 439kts
11-Jun-16 19:10 34.331038 -119.505071 307 34019ft 439kts
11-Jun-16 19:11 34.408208 -119.619114 307 34018ft 438kts
11-Jun-16 19:12 34.484997 -119.732145 307 34018ft 438kts
11-Jun-16 19:13 34.572967 -119.834086 319 34016ft 443kts
11-Jun-16 19:14 34.668043 -119.928593 318 34018ft 443kts
11-Jun-16 19:15 34.762998 -120.023838 318 34018ft 443kts
11-Jun-16 19:16 34.857683 -120.119100 318 34022ft 443kts
11-Jun-16 19:17 34.952355 -120.214644 318 34025ft 442kts
11-Jun-16 19:18 35.046529 -120.309984 318 34027ft 442kts
11-Jun-16 19:19 35.140399 -120.405309 318 34023ft 442kts
11-Jun-16 19:20 35.234744 -120.501419 318 34019ft 444kts
11-Jun-16 19:21 35.329102 -120.597838 318 34018ft 443kts
11-Jun-16 19:22 35.423450 -120.694042 318 34009ft 444kts
11-Jun-16 19:23 35.518161 -120.791171 317 33986ft 443kts
11-Jun-16 19:24 35.612911 -120.888931 317 33975ft 455kts
11-Jun-16 19:25 35.711359 -120.990822 317 33993ft 470kts
11-Jun-16 19:26 35.810664 -121.093927 317 33979ft 466kts
11-Jun-16 19:27 35.909739 -121.197165 317 33983ft 467kts
11-Jun-16 19:28 36.006553 -121.298326 316 34027ft 436kts
11-Jun-16 19:29 36.097347 -121.387889 326 33969ft 414kts
11-Jun-16 19:30 36.194334 -121.463464 327 34028ft 423kts
11-Jun-16 19:31 36.293972 -121.541466 328 30895ft 429kts
11-Jun-16 19:32 36.392259 -121.618607 328 27676ft 416kts
11-Jun-16 19:33 36.488164 -121.693497 328 25471ft 413kts
11-Jun-16 19:34 36.582107 -121.766065 328 23119ft 386kts
11-Jun-16 19:35 36.669356 -121.835070 328 21091ft 365kts
11-Jun-16 19:36 36.754147 -121.897071 345 19257ft 345kts
11-Jun-16 19:37 36.843729 -121.924863 347 18764ft 316kts
11-Jun-16 19:38 36.933409 -121.950185 347 15427ft 339kts
11-Jun-16 19:39 37.025215 -121.981872 343 11157ft 379kts
11-Jun-16 19:40 37.116285 -122.017266 342 10160ft 306kts
11-Jun-16 19:41 37.191212 -122.046600 342 8967ft 282kts
11-Jun-16 19:42 37.263320 -122.074891 342 7986ft 252kts
11-Jun-16 19:43 37.324369 -122.098889 342 7183ft 222kts
11-Jun-16 19:44 37.383037 -122.121490 344 5577ft 218kts
11-Jun-16 19:45 37.437706 -122.141428 342 4100ft 184kts
11-Jun-16 19:46 37.481445 -122.157655 342 3219ft 158kts
11-Jun-16 19:47 37.522918 -122.170808 343 3026ft 155kts
11-Jun-16 19:48 37.547176 -122.208122 295 2766ft 143kts
11-Jun-16 19:49 37.566527 -122.249565 297 1863ft 132kts
11-Jun-16 19:50 37.584177 -122.291008 293 1118ft 133kts
11-Jun-16 19:51 37.600485 -122.330921 297 454ft 124kts
11-Jun-16 19:52 37.615825 -122.368025 297 11ft 101kts
11-Jun-16 19:53 37.619637 -122.379323 230 27ft 2kts
11-Jun-16 19:54 37.619813 -122.380655 297 28ft 9kts
11-Jun-16 19:55 37.620667 -122.382666 294 30ft 4kts
11-Jun-16 19:56 37.619807 -122.383959 214 30ft 1kts

Navigation Log

Ident Type
Flight plan parsing failed, navigation log unavailable